Weather observations for the past three days for
Pikeville Pike County Airport and Hatcher Field
Imperial (Metric)
Date Time (edt) Wind (mph) Vis. (mi.) Weather Sky Cond. Temperature (ºF) Relative Humidity Wind Chill (°F) Heat Index (°F) Pressure Precipitation (in)
Air Dwpt 6 hour altimeter (in) sea level (mb) 1 hr 3 hr 6 hr
Max. Min.
05 20:35 S 3 10.00 Mostly Cloudy BKN090 68.2 45 43% 29.83 0.0
05 20:15 S 3 10.00 Overcast OVC090 68.9 44.8 42% 29.84 0.0
05 19:55 Calm 10.00 Mostly Cloudy BKN100 68.9 45 74.5 68.9 42% 29.84 0.0
05 19:35 Calm 10.00 Mostly Cloudy BKN100 69.3 44.6 41% 29.84 0.0
05 19:15 Calm 10.00 Overcast OVC100 69.3 44.2 41% 29.84 0.0
05 18:55 Calm 10.00 Overcast OVC100 69.4 44.8 41% 29.85 0.0
05 18:35 Calm 10.00 Mostly Cloudy BKN110 69.8 44.2 40% 29.85 0.0
05 18:15 Calm 10.00 Partly Cloudy SCT120 70.2 43.7 39% 29.86 0.0
05 17:55 SW 3 10.00 Fair CLR 70.7 43 37% 29.86 0.0
05 17:35 SW 6 10.00 Fair CLR 71.4 43.2 36% 29.86 0.0
05 17:15 S 5 10.00 Fair CLR 72.1 43.5 36% 29.87 0.0
05 16:55 SW 7 10.00 Fair CLR 72.7 45 37% 29.87 0.0
05 16:35 SW 7 10.00 Fair CLR 73.8 46.2 38% 29.87 0.0
05 16:15 S 6 10.00 Fair CLR 72 45.7 39% 29.88 0.0
05 15:35 SW 6 10.00 Partly Cloudy SCT070 SCT080 73 45 37% 29.9 0.0
05 15:15 SW 8 10.00 Partly Cloudy SCT060 74.1 45.9 37% 29.9 0.0
05 14:55 S 10 10.00 Partly Cloudy SCT060 72.9 45.7 38% 29.91 0.0
05 14:35 SW 6 10.00 Mostly Cloudy BKN070 72.7 46.8 40% 29.91 0.0
05 14:15 S 5 G 16 10.00 Mostly Cloudy BKN060 73.2 45.7 38% 29.92 0.0
05 13:55 S 7 10.00 Overcast OVC060 73.2 46.2 74.1 62.2 38% 29.92 0.0
05 13:35 S 7 10.00 Mostly Cloudy BKN060 73.4 45.1 37% 29.93 0.0
05 13:15 SW 5 10.00 Mostly Cloudy BKN060 73.8 46.8 38% 29.94 0.0
05 12:55 SW 8 10.00 Mostly Cloudy BKN060 73.4 46.8 39% 29.94 0.0
05 12:35 SW 6 10.00 Mostly Cloudy BKN060 72.1 46 39% 29.94 0.0
05 12:15 SW 9 G 20 10.00 Mostly Cloudy BKN060 71.4 45.9 40% 29.94 0.0
05 11:35 SW 9 10.00 Partly Cloudy SCT060 71.1 46.8 42% 29.95 0.0
05 11:15 SW 3 G 17 10.00 Partly Cloudy SCT060 70.7 46.6 42% 29.96 0.0
05 10:55 SW 6 10.00 Partly Cloudy SCT060 70.2 47.5 45% 29.95 0.0
05 10:35 SE 6 10.00 Mostly Cloudy BKN060 69.8 48 46% 29.95 0.0
05 10:15 S 3 10.00 Overcast OVC060 68.7 48.2 48% 29.95 0.0
05 09:55 S 6 10.00 Mostly Cloudy BKN060 67.3 47.7 50% 29.95 0.0
05 09:35 S 6 10.00 Mostly Cloudy BKN060 66.2 46.2 49% 29.96 0.0
05 09:15 S 5 10.00 Partly Cloudy SCT060 65.5 46.2 50% 29.96 0.0
05 08:55 S 3 10.00 Mostly Cloudy BKN060 64.6 45.7 51% 29.96 0.0
05 08:35 S 5 10.00 Overcast OVC060 64.2 45.3 50% 29.96 0.0
05 08:15 S 6 10.00 Mostly Cloudy BKN060 63.5 45.1 51% 29.95 0.0
05 07:55 S 6 10.00 Mostly Cloudy BKN060 61.9 44.8 65.5 60.8 54% 29.95 0.0
05 07:35 S 5 10.00 Mostly Cloudy BKN060 61 44.8 55% 29.93 0.0
05 07:15 S 7 10.00 Partly Cloudy SCT060 61 44.4 55% 29.92 0.0
05 06:55 S 6 10.00 Partly Cloudy SCT060 60.8 44.6 55% 29.92 0.0
05 06:35 SE 7 10.00 Fair CLR 60.8 44.6 55% 29.91 0.0
05 06:15 SE 7 10.00 Fair CLR 61.3 44.2 54% 29.91 0.0
05 05:55 SE 5 10.00 Fair CLR 62.6 43.9 51% 29.91 0.0
05 05:35 S 6 10.00 Fair CLR 62.8 43.9 50% 29.9 0.0
05 05:15 S 5 10.00 Fair CLR 62.8 43.7 50% 29.9 0.0
05 04:55 Calm 10.00 Fair CLR 63.3 43.7 49% 29.9 0.0
05 04:35 S 6 10.00 Fair CLR 63.9 43.7 48% 29.9 0.0
05 04:15 S 5 10.00 Fair CLR 63.7 43.9 49% 29.9 0.0
05 03:55 S 5 10.00 Fair CLR 63.7 44.2 49% 29.9 0.0
05 03:35 S 6 10.00 Fair CLR 64.2 44.4 49% 29.89 0.0
05 03:15 S 5 10.00 Fair CLR 64 44.6 49% 29.9 0.0
05 02:55 Calm 10.00 Fair CLR 63.7 44.6 50% 29.9 0.0
05 02:35 S 3 10.00 Fair CLR 64.4 43.9 47% 29.9 0.0
05 02:15 SW 5 10.00 Fair CLR 65.3 43.7 46% 29.9 0.0
05 01:55 S 3 10.00 Fair CLR 65.3 42.8 71.6 64.8 44% 29.9 0.0
05 01:35 Calm 10.00 Fair CLR 65.5 42.8 44% 29.9 0.0
05 01:15 S 5 10.00 Fair CLR 66.2 42.1 42% 29.89 0.0
05 00:55 Calm 10.00 Fair CLR 66.2 41.9 41% 29.88 0.0
05 00:35 S 5 10.00 Fair CLR 66.6 42.1 41% 29.88 0.0
05 00:15 S 3 10.00 Fair CLR 67.1 42.6 41% 29.87 0.0
04 23:55 S 5 10.00 Fair CLR 67.3 43.2 42% 29.87 0.0
04 23:35 S 5 10.00 Fair CLR 67.1 43.9 43% 29.86 0.0
04 23:15 SW 5 10.00 Fair CLR 67.6 44.1 43% 29.86 0.0
04 22:55 S 5 10.00 Fair CLR 67.5 44.2 43% 29.86 0.0
04 22:35 S 6 10.00 Fair CLR 68 44.2 42% 29.86 0.0
04 22:15 S 6 10.00 Fair CLR 68 44.4 43% 29.86 0.0
04 21:55 S 6 10.00 Fair CLR 68.4 44.6 43% 29.86 0.0
04 21:35 S 7 10.00 Fair CLR 68.5 44.6 42% 29.86 0.0
04 21:15 S 6 10.00 Fair CLR 69.3 44.6 41% 29.86 0.0
04 20:55 S 5 10.00 Fair CLR 69.4 44.4 41% 29.85 0.0
04 20:35 S 8 10.00 Fair CLR 70.2 44.6 40% 29.85 0.0
04 20:15 S 6 10.00 Fair CLR 70.7 44.8 40% 29.86 0.0
04 19:55 S 3 10.00 Fair CLR 71.6 45.5 76.5 70.3 39% 29.86 0.0
04 19:35 SW 3 10.00 Fair CLR 71.6 46 40% 29.86 0.0
04 19:15 S 5 10.00 Fair CLR 73 45.9 38% 29.86 0.0
04 18:55 SW 5 10.00 Fair CLR 73.8 45.7 37% 29.86 0.0
04 18:35 SW 7 10.00 Fair CLR 74.5 45.7 36% 29.86 0.0
04 18:15 SW 5 10.00 Fair CLR 74.5 46.6 37% 29.87 0.0
04 17:55 SW 5 10.00 Partly Cloudy SCT065 75.4 47.8 38% 78 29.87 0.0
04 17:35 SW 5 10.00 Partly Cloudy SCT065 76.3 49.3 39% 78 29.87 0.0
04 17:15 SW 8 G 16 10.00 Partly Cloudy SCT060 75.6 47.7 37% 78 29.87 0.0
04 16:55 S 6 10.00 Partly Cloudy SCT060 75.2 49.1 40% 78 29.87 0.0
04 16:35 SW 8 10.00 Fair CLR 75.4 49.3 40% 78 29.88 0.0
04 16:15 SW 7 10.00 Fair CLR 75.4 49.8 41% 78 29.88 0.0
04 15:55 SW 6 10.00 Fair CLR 74.8 49.8 41% 29.89 0.0
04 15:35 SW 6 10.00 Fair CLR 74.8 50 42% 29.89 0.0
04 15:15 S 7 10.00 Fair CLR 74.5 49.3 41% 29.9 0.0
04 14:55 S 5 10.00 Fair CLR 73.4 48.4 41% 29.9 0.0
04 14:35 SE 5 10.00 Fair CLR 72.3 48.7 43% 29.91 0.0
04 14:15 S 8 10.00 Fair CLR 71.6 49.1 45% 29.91 0.0
04 13:55 SW 7 10.00 Partly Cloudy SCT120 69.6 49.8 69.6 48.7 50% 29.92 0.0 0.08
04 13:35 S 5 10.00 Partly Cloudy SCT120 67.5 48.6 51% 29.92 0.0
04 13:15 SW 9 G 16 10.00 Partly Cloudy SCT120 68.2 48.6 50% 29.92 0.0
04 12:55 S 5 10.00 Fair CLR 65.5 48.9 55% 29.94 0.0
04 12:35 S 5 10.00 Partly Cloudy SCT100 SCT120 64.2 48.9 58% 29.96 0.0
04 12:15 SW 3 10.00 Mostly Cloudy BKN100 62.2 50.7 66% 29.97 0.0
04 11:55 S 6 10.00 Partly Cloudy SCT100 61.9 50.5 67% 29.98 0.0
04 11:35 S 3 10.00 Mostly Cloudy SCT075 SCT090 BKN110 60.6 52 73% 29.98 0.0
04 11:15 S 5 10.00 Mostly Cloudy BKN080 58.1 51.1 78% 29.99 0.0
04 10:55 S 7 10.00 Partly Cloudy SCT110 58.1 50.4 76% 29.99 0.0 0.08
04 10:35 S 7 10.00 Fair CLR 56.8 51.1 81% 30 0.0
04 10:15 S 6 10.00 Partly Cloudy SCT095 SCT120 56.1 53.4 91% 29.99 0.0
04 09:55 S 6 10.00 Partly Cloudy SCT095 54.5 52.9 94% 30 0.0
04 09:35 S 5 10.00 Partly Cloudy SCT070 52 51.4 98% 30.01 0.0
04 09:15 S 6 10.00 Mostly Cloudy BKN070 50 49.5 98% 48 30.01 0.0
04 08:55 SW 5 10.00 Light Rain SCT055 BKN065 OVC080 49.3 49.1 99% 48 30.01 0.0 0.08
04 08:35 SW 7 5.00 Rain OVC070 49.1 45.5 87% 47 30.02 0.0 0.06
04 07:55 SW 6 10.00 Light Rain BKN070 BKN100 52.9 38.3 54 50 58% 30.01 0.0
04 07:35 S 3 10.00 Fair CLR 54 37.4 54% 29.98 0.0
04 07:15 S 3 10.00 Partly Cloudy SCT100 52.3 37.4 57% 29.97 0.0
04 06:55 Calm 10.00 Mostly Cloudy SCT080 BKN090 51.1 37.4 60% 29.97 0.0
04 06:35 SE 5 10.00 Mostly Cloudy BKN080 BKN090 51.8 36.9 57% 29.96 0.0
04 06:15 SE 6 10.00 Partly Cloudy SCT090 51.8 36.5 56% 29.95 0.0
04 05:55 Calm 10.00 Thunderstorm in Vicinity SCT090 BKN110 52.7 36.7 55% 29.96 0.0
04 05:15 SW 3 10.00 Light Drizzle SCT065 SCT075 OVC090 51.1 36.7 58% 29.99 0.0
04 04:55 S 3 10.00 Light Rain BKN075 BKN090 OVC110 50.9 36 57% 29.98 0.0
04 04:35 S 5 10.00 Mostly Cloudy BKN085 BKN090 BKN120 50.7 34.9 55% 29.98 0.0
04 04:15 SE 3 10.00 Overcast OVC085 50.9 34.7 54% 29.99 0.0
04 03:55 SE 3 10.00 Overcast BKN085 OVC100 50.4 34.7 55% 29.99 0.0
04 03:35 SE 6 10.00 Overcast SCT085 OVC110 50.5 34.2 54% 29.99 0.0
04 03:15 SE 6 10.00 Overcast SCT095 OVC110 50.2 34 54% 29.99 0.0
04 02:55 SE 5 10.00 Overcast SCT075 BKN095 OVC110 50.9 33.4 51% 29.99 0.0
04 02:35 SE 6 10.00 Mostly Cloudy SCT075 SCT085 BKN120 50.7 32.7 50% 30 0.0
04 02:15 S 3 10.00 Partly Cloudy SCT120 50.7 32 49% 30.01 0.0
04 01:55 SE 3 10.00 Partly Cloudy SCT120 50.9 31.5 58.3 49.3 47% 30.01 0.0
04 01:35 Calm 10.00 Fair CLR 51.3 30.7 46% 30.02 0.0
04 01:15 Calm 10.00 Partly Cloudy SCT120 52 30.2 43% 30.02 0.0
04 00:55 S 3 10.00 Partly Cloudy SCT120 51.3 30.4 45% 30.03 0.0
04 00:35 SW 3 10.00 Partly Cloudy SCT120 51.8 30.2 44% 30.02 0.0
04 00:15 Calm 10.00 Partly Cloudy SCT120 52 30.2 43% 30.02 0.0
03 23:55 Calm 10.00 Partly Cloudy SCT120 52.9 29.7 41% 30.02 0.0
03 23:35 Calm 10.00 Mostly Cloudy BKN110 50 32.2 51% 30.01 0.0
03 23:15 Calm 10.00 Overcast OVC110 52.7 30.9 43% 30.01 0.0
03 22:55 Calm 10.00 Mostly Cloudy BKN110 54.1 28.8 38% 30.01 0.0
03 22:35 Calm 10.00 Partly Cloudy SCT120 55.4 27.3 34% 30.01 0.0
03 22:15 Calm 10.00 Fair CLR 55.4 28.2 35% 30 0.0
03 21:55 SE 3 10.00 Fair CLR 56.3 27.9 34% 30 0.0
03 21:35 Calm 10.00 Fair CLR 57.4 26.6 31% 30 0.0
03 21:15 Calm 10.00 Fair CLR 57.2 26.6 31% 30 0.0
03 20:55 W 5 10.00 Fair CLR 57 27.1 32% 30 0.0
03 20:35 W 3 10.00 Fair CLR 57.6 27.3 31% 29.99 0.0
03 20:15 W 3 10.00 Fair CLR 58.3 27 30% 29.99 0.0
03 19:55 Calm 10.00 Fair CLR 58.1 28 62.8 56.8 32% 29.99 0.0
03 19:35 W 7 10.00 Fair CLR 60.3 27.1 28% 30 0.0
03 19:15 SW 5 10.00 Fair CLR 60.8 26.4 27% 29.99 0.0
03 18:55 SW 3 10.00 Fair CLR 60.8 26.1 27% 30 0.0
03 18:35 SW 3 10.00 Fair CLR 61.3 26.6 27% 30.01 0.0
03 18:15 W 5 10.00 Fair CLR 61.7 26.4 26% 30.01 0.0
03 17:55 SW 6 10.00 Fair CLR 62.1 26.4 26% 30.02 0.0
03 17:35 SW 6 10.00 Fair CLR 62.2 25.9 25% 30.02 0.0
03 17:15 W 7 10.00 Fair CLR 62.4 26.4 25% 30.02 0.0
03 16:55 W 6 10.00 Fair CLR 62.6 27.3 26% 30.02 0.0
03 16:35 Calm 10.00 Fair CLR 61 26.8 27% 30.03 0.0
03 16:15 S 5 10.00 Fair CLR 61.7 27 27% 30.04 0.0
03 15:55 Calm 10.00 Fair CLR 60.6 26.4 27% 30.06 0.0
03 15:35 W 3 10.00 Fair CLR 60.3 26.6 28% 30.07 0.0
03 15:15 W 6 10.00 Fair CLR 59.4 25.3 27% 30.08 0.0
03 14:55 Calm 10.00 Fair CLR 58.3 24.8 28% 30.09 0.0
03 14:35 S 3 10.00 Fair CLR 58.3 26.1 29% 30.1 0.0
03 14:15 SW 6 10.00 Fair CLR 57.7 26.8 31% 30.11 0.0
03 13:55 SW 5 10.00 Fair CLR 56.7 25.3 57 38.3 30% 30.11 0.0
03 13:35 S 6 10.00 Fair CLR 56.3 25 30% 30.11 0.0
03 13:15 SE 3 10.00 Fair CLR 54.9 25.3 32% 30.13 0.0
03 12:55 S 5 10.00 Fair CLR 55 25.7 32% 30.13 0.0
03 12:35 NW 8 10.00 Fair CLR 54.3 26.4 34% 30.14 0.0
03 12:15 NW 3 10.00 Fair CLR 54.1 26.1 34% 30.15 0.0
03 11:55 NE 5 10.00 Fair CLR 53.1 26.6 36% 30.15 0.0
03 11:35 W 5 10.00 Fair CLR 52.7 27.1 37% 30.16 0.0
03 11:15 Calm 10.00 Fair CLR 50.5 25.7 38% 30.16 0.0
03 10:55 W 5 10.00 Fair CLR 51.6 28.9 42% 30.16 0.0
03 10:35 SE 3 10.00 Fair CLR 49.3 30 48% 30.16 0.0
03 10:15 S 5 10.00 Fair CLR 47.8 30.6 51% 46 30.16 0.0
03 09:55 Calm 10.00 Fair CLR 46.8 31.1 55% 30.16 0.0
03 09:35 SW 3 10.00 Fair CLR 45.1 32.2 61% 30.16 0.0
03 09:15 Calm 10.00 Fair CLR 43.5 32.2 64% 30.16 0.0
03 08:35 Calm 10.00 Fair CLR 41 32 70% 30.15 0.0
03 08:15 Calm 10.00 Fair CLR 39.4 32 75% 30.15 0.0
03 07:55 S 3 10.00 Fair CLR 38.3 32 41.2 35.1 78% 30.14 0.0
03 07:35 Calm 10.00 Fair CLR 36.9 34.7 92% 30.13 0.0
03 07:15 S 3 10.00 Fair CLR 37.2 34.3 89% 30.12 0.0
03 06:55 S 3 10.00 Fair CLR 36.7 34.7 93% 30.11 0.0
03 06:35 Calm 10.00 Fair CLR 35.6 35.2 99% 30.11 0.0
03 06:15 Calm 10.00 Fair CLR 35.6 32.7 89% 30.1 0.0
03 05:55 Calm 10.00 Fair CLR 36.9 31.1 80% 30.1 0.0
03 05:35 Calm 10.00 Fair CLR 37.8 30.9 76% 30.1 0.0
03 05:15 SW 3 10.00 Fair CLR 37.6 31.1 78% 30.1 0.0
03 04:55 SW 3 10.00 Fair CLR 38.5 30.2 72% 30.1 0.0
03 04:35 SW 3 10.00 Fair CLR 38.3 31.5 76% 30.1 0.0
03 04:15 SW 3 10.00 Fair CLR 38.7 30.2 72% 30.1 0.0
03 03:55 Calm 10.00 Fair CLR 38.1 30.2 73% 30.09 0.0
03 03:35 Calm 10.00 Fair CLR 39.2 27.5 63% 30.08 0.0
03 03:15 N 3 10.00 Fair CLR 39.4 27.5 63% 30.08 0.0
03 02:55 N 3 10.00 Fair CLR 39.6 28.2 64% 30.08 0.0
03 02:35 N 6 10.00 Partly Cloudy SCT065 39.9 28.8 64% 36 30.08 0.0
03 02:15 N 5 10.00 Partly Cloudy SCT065 40.1 29.1 65% 37 30.08 0.0
03 01:55 N 5 10.00 Fair CLR 41.2 29.1 50.4 41 62% 39 30.08 0.0
03 01:35 N 6 10.00 Fair CLR 41.2 30 65% 38 30.08 0.0
03 01:15 N 5 10.00 Fair CLR 42.1 30.2 63% 40 30.07 0.0
03 00:55 N 7 10.00 Fair CLR 42.8 30.6 62% 39 30.07 0.0
03 00:35 N 6 10.00 Fair CLR 43.2 31.5 63% 40 30.06 0.0
03 00:15 N 6 10.00 Partly Cloudy SCT065 44.4 31.6 61% 42 30.06 0.0
02 23:55 N 7 10.00 Overcast BKN055 OVC070 45.7 31.6 58% 43 30.05 0.0
02 23:35 W 3 10.00 Overcast BKN050 OVC065 45.9 32 59% 30.04 0.0
02 23:15 W 3 10.00 Overcast BKN065 BKN070 OVC080 45.9 31.1 56% 30.04 0.0
02 22:55 NW 3 10.00 Mostly Cloudy BKN090 45.7 31.5 58% 30.04 0.0
02 22:35 NW 3 10.00 Partly Cloudy SCT090 46 31.3 56% 30.04 0.0
02 22:15 NW 5 10.00 Overcast OVC090 46.4 31.6 57% 45 30.04 0.0
02 21:55 NW 3 10.00 Overcast SCT060 OVC090 47.1 32 56% 30.04 0.0
02 21:35 NW 5 10.00 Mostly Cloudy SCT060 BKN090 46.6 32 57% 45 30.03 0.0
02 21:15 NW 6 10.00 Partly Cloudy SCT090 46.8 31.6 56% 44 30.03 0.0
02 20:55 NW 6 10.00 Overcast SCT055 SCT075 OVC090 47.5 32 55% 45 30.02 0.0
Date Time (edt) Wind (mph) Vis. (mi.) Weather Sky Cond. Air Dwpt Max. Min. Relative Humidity Wind Chill (°F) Heat Index (°F) altimeter (in) sea level (mb) 1 hr 3 hr 6 hr
6 hour
Temperature (ºF) Pressure Precipitation (in)